sensor_id;sensor_type;location;lat;lon;timestamp;pressure;altitude;pressure_sealevel;temperature;humidity
21760;BME280;11041;50.854;20.580;2023-03-23T00:01:18;98233.78;;;5.98;93.59
21760;BME280;11041;50.854;20.580;2023-03-23T00:03:50;98213.63;;;5.81;93.77
21760;BME280;11041;50.854;20.580;2023-03-23T00:06:19;98233.13;;;5.88;95.31
21760;BME280;11041;50.854;20.580;2023-03-23T00:08:48;98230.94;;;5.90;94.84
21760;BME280;11041;50.854;20.580;2023-03-23T00:11:19;98195.00;;;5.69;94.45
21760;BME280;11041;50.854;20.580;2023-03-23T00:13:50;98246.84;;;6.02;94.51
21760;BME280;11041;50.854;20.580;2023-03-23T00:16:23;98168.41;;;5.61;94.09
21760;BME280;11041;50.854;20.580;2023-03-23T00:19:02;98232.38;;;6.01;94.51
21760;BME280;11041;50.854;20.580;2023-03-23T00:21:36;98214.03;;;5.88;94.53
21760;BME280;11041;50.854;20.580;2023-03-23T00:24:18;98229.75;;;5.96;94.69
21760;BME280;11041;50.854;20.580;2023-03-23T00:26:47;98237.34;;;5.99;94.69
21760;BME280;11041;50.854;20.580;2023-03-23T00:29:22;98208.50;;;5.93;95.24
21760;BME280;11041;50.854;20.580;2023-03-23T00:31:49;98212.59;;;5.95;94.76
21760;BME280;11041;50.854;20.580;2023-03-23T00:34:21;98223.53;;;6.09;94.81
21760;BME280;11041;50.854;20.580;2023-03-23T00:36:51;98233.34;;;6.10;94.57
21760;BME280;11041;50.854;20.580;2023-03-23T00:39:19;98176.06;;;5.78;95.41
21760;BME280;11041;50.854;20.580;2023-03-23T00:41:46;98195.94;;;5.97;95.19
21760;BME280;11041;50.854;20.580;2023-03-23T00:44:14;98168.50;;;5.88;94.41
21760;BME280;11041;50.854;20.580;2023-03-23T00:46:47;98206.75;;;6.02;94.14
21760;BME280;11041;50.854;20.580;2023-03-23T00:49:18;98183.91;;;5.98;94.30
21760;BME280;11041;50.854;20.580;2023-03-23T00:51:45;98198.25;;;6.04;93.91
21760;BME280;11041;50.854;20.580;2023-03-23T00:54:12;98196.13;;;6.01;93.73
21760;BME280;11041;50.854;20.580;2023-03-23T00:56:39;98192.69;;;5.95;93.63
21760;BME280;11041;50.854;20.580;2023-03-23T00:59:06;98205.13;;;6.01;94.09
21760;BME280;11041;50.854;20.580;2023-03-23T01:01:33;98187.25;;;5.95;94.08
21760;BME280;11041;50.854;20.580;2023-03-23T01:04:01;98204.47;;;5.90;93.84
21760;BME280;11041;50.854;20.580;2023-03-23T01:06:36;98210.19;;;6.08;93.65
21760;BME280;11041;50.854;20.580;2023-03-23T01:09:14;98194.16;;;5.87;93.60
21760;BME280;11041;50.854;20.580;2023-03-23T01:11:44;98206.03;;;5.96;93.75
21760;BME280;11041;50.854;20.580;2023-03-23T01:14:14;98194.16;;;5.87;94.00
21760;BME280;11041;50.854;20.580;2023-03-23T01:16:41;98217.94;;;6.01;94.42
21760;BME280;11041;50.854;20.580;2023-03-23T01:19:09;98205.78;;;5.93;93.97
21760;BME280;11041;50.854;20.580;2023-03-23T01:21:36;98195.25;;;5.86;93.59
21760;BME280;11041;50.854;20.580;2023-03-23T01:24:03;98170.69;;;5.72;93.74
21760;BME280;11041;50.854;20.580;2023-03-23T01:26:29;98210.97;;;5.94;93.77
21760;BME280;11041;50.854;20.580;2023-03-23T01:28:56;98214.66;;;5.85;93.60
21760;BME280;11041;50.854;20.580;2023-03-23T01:31:25;98224.88;;;5.93;94.38
21760;BME280;11041;50.854;20.580;2023-03-23T01:33:53;98213.00;;;5.84;94.09
21760;BME280;11041;50.854;20.580;2023-03-23T01:36:27;98210.28;;;5.84;94.16
21760;BME280;11041;50.854;20.580;2023-03-23T01:38:55;98208.44;;;5.79;94.03
21760;BME280;11041;50.854;20.580;2023-03-23T01:41:24;98193.94;;;5.65;94.21
21760;BME280;11041;50.854;20.580;2023-03-23T01:44:59;98210.47;;;5.73;93.87
21760;BME280;11041;50.854;20.580;2023-03-23T01:46:53;98208.00;;;5.72;94.16
21760;BME280;11041;50.854;20.580;2023-03-23T01:49:29;98215.38;;;5.71;94.08
21760;BME280;11041;50.854;20.580;2023-03-23T01:52:09;98210.63;;;5.63;94.06
21760;BME280;11041;50.854;20.580;2023-03-23T01:54:40;98218.47;;;5.65;94.29
21760;BME280;11041;50.854;20.580;2023-03-23T01:57:17;98203.09;;;5.55;93.68
21760;BME280;11041;50.854;20.580;2023-03-23T01:59:49;98196.25;;;5.39;93.97
21760;BME280;11041;50.854;20.580;2023-03-23T02:02:19;98215.28;;;5.44;93.95
21760;BME280;11041;50.854;20.580;2023-03-23T02:04:47;98214.16;;;5.45;94.19
21760;BME280;11041;50.854;20.580;2023-03-23T02:07:19;98198.41;;;5.23;94.03
21760;BME280;11041;50.854;20.580;2023-03-23T02:09:46;98205.25;;;5.20;93.88
21760;BME280;11041;50.854;20.580;2023-03-23T02:12:13;98183.88;;;5.08;94.25
21760;BME280;11041;50.854;20.580;2023-03-23T02:14:39;98222.38;;;5.21;94.24
21760;BME280;11041;50.854;20.580;2023-03-23T02:17:38;98181.00;;;5.00;94.21
21760;BME280;11041;50.854;20.580;2023-03-23T02:23:40;98213.59;;;5.05;94.81
21760;BME280;11041;50.854;20.580;2023-03-23T02:26:53;98212.59;;;5.01;94.66
21760;BME280;11041;50.854;20.580;2023-03-23T02:35:20;98202.97;;;4.84;96.00
21760;BME280;11041;50.854;20.580;2023-03-23T02:37:59;98216.31;;;4.86;96.37
21760;BME280;11041;50.854;20.580;2023-03-23T02:43:55;98208.94;;;4.86;96.48
21760;BME280;11041;50.854;20.580;2023-03-23T02:46:23;98185.38;;;4.77;96.00
21760;BME280;11041;50.854;20.580;2023-03-23T02:48:53;98201.31;;;4.88;96.74
21760;BME280;11041;50.854;20.580;2023-03-23T02:51:24;98198.94;;;4.82;96.27
21760;BME280;11041;50.854;20.580;2023-03-23T02:53:55;98180.56;;;4.68;96.65
21760;BME280;11041;50.854;20.580;2023-03-23T02:56:25;98180.88;;;4.67;95.46
21760;BME280;11041;50.854;20.580;2023-03-23T02:58:55;98192.72;;;4.76;95.88
21760;BME280;11041;50.854;20.580;2023-03-23T03:03:56;98210.97;;;4.76;96.32
21760;BME280;11041;50.854;20.580;2023-03-23T03:06:51;98217.06;;;4.67;96.52
21760;BME280;11041;50.854;20.580;2023-03-23T03:16:01;98201.66;;;4.58;96.55
21760;BME280;11041;50.854;20.580;2023-03-23T03:18:56;98191.13;;;4.51;96.92
21760;BME280;11041;50.854;20.580;2023-03-23T03:21:31;98170.81;;;4.43;96.25
21760;BME280;11041;50.854;20.580;2023-03-23T03:24:03;98194.53;;;4.62;97.05
21760;BME280;11041;50.854;20.580;2023-03-23T03:26:32;98179.13;;;4.52;96.98
21760;BME280;11041;50.854;20.580;2023-03-23T03:29:01;98192.09;;;4.60;96.19
21760;BME280;11041;50.854;20.580;2023-03-23T03:31:35;98189.44;;;4.55;96.38
21760;BME280;11041;50.854;20.580;2023-03-23T03:34:05;98189.84;;;4.43;96.41
21760;BME280;11041;50.854;20.580;2023-03-23T03:36:34;98204.03;;;4.40;97.37
21760;BME280;11041;50.854;20.580;2023-03-23T03:39:07;98201.34;;;4.35;98.01
21760;BME280;11041;50.854;20.580;2023-03-23T03:41:36;98206.75;;;4.40;97.44
21760;BME280;11041;50.854;20.580;2023-03-23T03:44:06;98210.28;;;4.41;97.84
21760;BME280;11041;50.854;20.580;2023-03-23T03:46:35;98191.09;;;4.27;97.91
21760;BME280;11041;50.854;20.580;2023-03-23T03:49:05;98181.06;;;4.22;97.23
21760;BME280;11041;50.854;20.580;2023-03-23T03:51:34;98202.16;;;4.36;96.87
21760;BME280;11041;50.854;20.580;2023-03-23T03:54:02;98207.41;;;4.27;96.13
21760;BME280;11041;50.854;20.580;2023-03-23T03:56:28;98174.16;;;4.06;96.60
21760;BME280;11041;50.854;20.580;2023-03-23T03:58:57;98177.13;;;4.10;96.99
21760;BME280;11041;50.854;20.580;2023-03-23T04:01:24;98184.72;;;4.13;96.96
21760;BME280;11041;50.854;20.580;2023-03-23T04:03:51;98185.28;;;4.10;96.14
21760;BME280;11041;50.854;20.580;2023-03-23T04:06:18;98195.63;;;4.08;96.64
21760;BME280;11041;50.854;20.580;2023-03-23T04:08:45;98192.66;;;4.04;96.67
21760;BME280;11041;50.854;20.580;2023-03-23T04:11:14;98208.59;;;4.16;97.17
21760;BME280;11041;50.854;20.580;2023-03-23T04:13:41;98213.19;;;4.20;96.68
21760;BME280;11041;50.854;20.580;2023-03-23T04:16:08;98176.72;;;3.97;96.23
21760;BME280;11041;50.854;20.580;2023-03-23T04:18:36;98206.72;;;4.11;96.00
21760;BME280;11041;50.854;20.580;2023-03-23T04:21:04;98213.19;;;4.20;96.82
21760;BME280;11041;50.854;20.580;2023-03-23T04:23:35;98186.72;;;4.02;96.07
21760;BME280;11041;50.854;20.580;2023-03-23T04:26:04;98196.13;;;4.15;95.94
21760;BME280;11041;50.854;20.580;2023-03-23T04:28:30;98201.03;;;4.13;95.79
21760;BME280;11041;50.854;20.580;2023-03-23T04:31:00;98188.06;;;4.04;95.53
21760;BME280;11041;50.854;20.580;2023-03-23T04:33:29;98184.50;;;4.04;96.40
21760;BME280;11041;50.854;20.580;2023-03-23T04:36:00;98183.19;;;4.01;95.90
21760;BME280;11041;50.854;20.580;2023-03-23T04:38:28;98158.88;;;3.86;96.46
21760;BME280;11041;50.854;20.580;2023-03-23T04:40:58;98171.41;;;3.82;95.83
21760;BME280;11041;50.854;20.580;2023-03-23T04:43:28;98182.00;;;3.83;96.02
21760;BME280;11041;50.854;20.580;2023-03-23T04:45:59;98199.63;;;3.86;95.93
21760;BME280;11041;50.854;20.580;2023-03-23T04:48:29;98177.41;;;3.79;96.63
21760;BME280;11041;50.854;20.580;2023-03-23T04:51:02;98174.16;;;3.77;96.17
21760;BME280;11041;50.854;20.580;2023-03-23T04:53:32;98191.47;;;3.86;95.93
21760;BME280;11041;50.854;20.580;2023-03-23T04:55:59;98183.91;;;3.83;96.02
21760;BME280;11041;50.854;20.580;2023-03-23T04:58:27;98185.25;;;3.86;96.47
21760;BME280;11041;50.854;20.580;2023-03-23T05:00:55;98180.88;;;3.84;96.86
21760;BME280;11041;50.854;20.580;2023-03-23T05:03:22;98167.66;;;3.78;96.71
21760;BME280;11041;50.854;20.580;2023-03-23T05:05:48;98201.72;;;3.99;97.31
21760;BME280;11041;50.854;20.580;2023-03-23T05:08:23;98177.00;;;3.96;97.04
21760;BME280;11041;50.854;20.580;2023-03-23T05:10:56;98189.66;;;4.05;97.53
21760;BME280;11041;50.854;20.580;2023-03-23T05:13:24;98169.09;;;3.99;97.57
21760;BME280;11041;50.854;20.580;2023-03-23T05:15:51;98187.97;;;4.15;97.74
21760;BME280;11041;50.854;20.580;2023-03-23T05:18:17;98199.25;;;4.27;97.84
21760;BME280;11041;50.854;20.580;2023-03-23T05:20:44;98155.91;;;4.12;98.59
21760;BME280;11041;50.854;20.580;2023-03-23T05:23:13;98169.81;;;4.34;98.36
21760;BME280;11041;50.854;20.580;2023-03-23T05:25:40;98181.03;;;4.52;98.02
21760;BME280;11041;50.854;20.580;2023-03-23T05:28:09;98178.72;;;4.64;98.16
21760;BME280;11041;50.854;20.580;2023-03-23T05:30:38;98158.34;;;4.61;98.05
21760;BME280;11041;50.854;20.580;2023-03-23T05:33:05;98155.28;;;4.68;98.23
21760;BME280;11041;50.854;20.580;2023-03-23T05:35:32;98172.00;;;4.80;99.04
21760;BME280;11041;50.854;20.580;2023-03-23T05:37:59;98177.09;;;4.87;99.91
21760;BME280;11041;50.854;20.580;2023-03-23T05:40:25;98154.72;;;4.90;100.00
21760;BME280;11041;50.854;20.580;2023-03-23T05:42:54;98172.13;;;5.13;99.86
21760;BME280;11041;50.854;20.580;2023-03-23T05:45:22;98172.19;;;5.27;100.00
21760;BME280;11041;50.854;20.580;2023-03-23T05:47:49;98182.94;;;5.37;99.75
21760;BME280;11041;50.854;20.580;2023-03-23T05:50:16;98157.00;;;5.40;99.92
21760;BME280;11041;50.854;20.580;2023-03-23T05:52:43;98176.88;;;5.59;100.00
21760;BME280;11041;50.854;20.580;2023-03-23T05:55:11;98157.81;;;5.59;99.60
21760;BME280;11041;50.854;20.580;2023-03-23T05:57:38;98179.19;;;5.85;99.48
21760;BME280;11041;50.854;20.580;2023-03-23T06:00:06;98180.66;;;5.96;99.67
21760;BME280;11041;50.854;20.580;2023-03-23T06:02:56;98146.34;;;5.95;99.67
21760;BME280;11041;50.854;20.580;2023-03-23T06:05:23;98154.13;;;6.15;99.33
21760;BME280;11041;50.854;20.580;2023-03-23T06:07:52;98166.91;;;6.34;99.40
21760;BME280;11041;50.854;20.580;2023-03-23T06:10:20;98170.34;;;6.53;99.46
21760;BME280;11041;50.854;20.580;2023-03-23T06:12:49;98162.97;;;6.68;99.62
21760;BME280;11041;50.854;20.580;2023-03-23T06:15:18;98149.81;;;6.70;99.26
21760;BME280;11041;50.854;20.580;2023-03-23T06:17:45;98163.13;;;6.99;98.77
21760;BME280;11041;50.854;20.580;2023-03-23T06:20:11;98164.72;;;7.14;98.50
21760;BME280;11041;50.854;20.580;2023-03-23T06:22:39;98128.00;;;7.20;97.32
21760;BME280;11041;50.854;20.580;2023-03-23T06:25:09;98128.44;;;7.36;96.55
21760;BME280;11041;50.854;20.580;2023-03-23T06:27:37;98149.91;;;7.65;94.46
21760;BME280;11041;50.854;20.580;2023-03-23T06:30:05;98138.22;;;7.73;94.07
21760;BME280;11041;50.854;20.580;2023-03-23T06:32:33;98120.88;;;7.78;92.87
21760;BME280;11041;50.854;20.580;2023-03-23T06:35:00;98132.84;;;7.90;92.46
21760;BME280;11041;50.854;20.580;2023-03-23T06:37:27;98153.72;;;8.09;91.53
21760;BME280;11041;50.854;20.580;2023-03-23T06:39:53;98142.94;;;8.13;88.89
21760;BME280;11041;50.854;20.580;2023-03-23T06:42:22;98153.81;;;8.26;88.70
21760;BME280;11041;50.854;20.580;2023-03-23T06:44:51;98161.16;;;8.40;87.53
21760;BME280;11041;50.854;20.580;2023-03-23T06:47:18;98144.84;;;8.35;86.87
21760;BME280;11041;50.854;20.580;2023-03-23T06:49:45;98164.09;;;8.52;87.07
21760;BME280;11041;50.854;20.580;2023-03-23T06:52:11;98171.72;;;8.64;86.96
21760;BME280;11041;50.854;20.580;2023-03-23T06:54:38;98161.56;;;8.64;86.39
21760;BME280;11041;50.854;20.580;2023-03-23T06:57:04;98173.72;;;8.89;86.37
21760;BME280;11041;50.854;20.580;2023-03-23T06:59:31;98159.53;;;8.87;86.21
21760;BME280;11041;50.854;20.580;2023-03-23T07:01:57;98172.81;;;9.11;85.99
21760;BME280;11041;50.854;20.580;2023-03-23T07:04:24;98177.66;;;9.23;85.71
21760;BME280;11041;50.854;20.580;2023-03-23T07:06:50;98176.53;;;9.33;85.29
21760;BME280;11041;50.854;20.580;2023-03-23T07:09:17;98171.22;;;9.45;84.19
21760;BME280;11041;50.854;20.580;2023-03-23T07:11:43;98174.00;;;9.63;82.23
21760;BME280;11041;50.854;20.580;2023-03-23T07:14:12;98178.31;;;9.81;80.41
21760;BME280;11041;50.854;20.580;2023-03-23T07:16:38;98167.03;;;9.82;80.69
21760;BME280;11041;50.854;20.580;2023-03-23T07:19:05;98180.25;;;9.98;81.30
21760;BME280;11041;50.854;20.580;2023-03-23T07:21:31;98169.44;;;10.01;80.68
21760;BME280;11041;50.854;20.580;2023-03-23T07:23:58;98178.78;;;10.18;80.56
21760;BME280;11041;50.854;20.580;2023-03-23T07:26:24;98180.06;;;10.29;79.30
21760;BME280;11041;50.854;20.580;2023-03-23T07:28:51;98183.59;;;10.38;79.72
21760;BME280;11041;50.854;20.580;2023-03-23T07:31:17;98185.66;;;10.50;77.70
21760;BME280;11041;50.854;20.580;2023-03-23T07:33:44;98173.38;;;10.56;77.06
21760;BME280;11041;50.854;20.580;2023-03-23T07:36:10;98160.63;;;10.52;77.98
21760;BME280;11041;50.854;20.580;2023-03-23T07:38:37;98156.69;;;10.61;76.99
21760;BME280;11041;50.854;20.580;2023-03-23T07:41:06;98172.31;;;10.70;77.03
21760;BME280;11041;50.854;20.580;2023-03-23T07:43:32;98161.97;;;10.75;76.33
21760;BME280;11041;50.854;20.580;2023-03-23T07:45:59;98184.97;;;10.92;76.02
21760;BME280;11041;50.854;20.580;2023-03-23T07:48:26;98164.63;;;10.93;75.81
21760;BME280;11041;50.854;20.580;2023-03-23T07:50:53;98184.09;;;11.08;76.87
21760;BME280;11041;50.854;20.580;2023-03-23T07:53:20;98171.25;;;11.21;75.21
21760;BME280;11041;50.854;20.580;2023-03-23T07:55:48;98175.81;;;11.38;74.56
21760;BME280;11041;50.854;20.580;2023-03-23T07:58:15;98181.31;;;11.59;74.31
21760;BME280;11041;50.854;20.580;2023-03-23T08:00:46;98157.03;;;11.61;73.76
21760;BME280;11041;50.854;20.580;2023-03-23T08:03:24;98175.94;;;11.84;73.97
21760;BME280;11041;50.854;20.580;2023-03-23T08:06:02;98168.16;;;11.86;74.10
21760;BME280;11041;50.854;20.580;2023-03-23T08:08:29;98147.09;;;11.90;71.88
21760;BME280;11041;50.854;20.580;2023-03-23T08:10:56;98166.66;;;12.09;73.10
21760;BME280;11041;50.854;20.580;2023-03-23T08:13:23;98169.19;;;12.14;73.29
21760;BME280;11041;50.854;20.580;2023-03-23T08:15:50;98183.72;;;12.36;72.07
21760;BME280;11041;50.854;20.580;2023-03-23T08:18:17;98169.75;;;12.53;70.61
21760;BME280;11041;50.854;20.580;2023-03-23T08:20:44;98155.50;;;12.51;70.56
21760;BME280;11041;50.854;20.580;2023-03-23T08:23:11;98145.63;;;12.63;68.91
21760;BME280;11041;50.854;20.580;2023-03-23T08:25:38;98163.34;;;12.86;68.86
21760;BME280;11041;50.854;20.580;2023-03-23T08:28:06;98178.16;;;12.94;68.90
21760;BME280;11041;50.854;20.580;2023-03-23T08:30:32;98173.94;;;12.96;69.43
21760;BME280;11041;50.854;20.580;2023-03-23T08:33:00;98181.97;;;13.02;69.88
21760;BME280;11041;50.854;20.580;2023-03-23T08:35:27;98167.94;;;13.07;69.91
21760;BME280;11041;50.854;20.580;2023-03-23T08:37:54;98180.91;;;13.18;68.61
21760;BME280;11041;50.854;20.580;2023-03-23T08:40:23;98163.53;;;13.18;68.58
21760;BME280;11041;50.854;20.580;2023-03-23T08:42:51;98159.41;;;13.24;68.67
21760;BME280;11041;50.854;20.580;2023-03-23T08:45:22;98160.19;;;13.25;68.23
21760;BME280;11041;50.854;20.580;2023-03-23T08:47:50;98164.59;;;13.38;68.57
21760;BME280;11041;50.854;20.580;2023-03-23T08:50:25;98176.16;;;13.56;68.39
21760;BME280;11041;50.854;20.580;2023-03-23T08:52:53;98169.59;;;13.60;67.49
21760;BME280;11041;50.854;20.580;2023-03-23T08:55:22;98167.69;;;13.77;67.08
21760;BME280;11041;50.854;20.580;2023-03-23T08:57:48;98163.63;;;13.87;65.62
21760;BME280;11041;50.854;20.580;2023-03-23T09:00:19;98172.00;;;14.02;64.13
21760;BME280;11041;50.854;20.580;2023-03-23T09:02:50;98178.25;;;14.15;64.89
21760;BME280;11041;50.854;20.580;2023-03-23T09:05:21;98163.44;;;14.07;64.62
21760;BME280;11041;50.854;20.580;2023-03-23T09:07:53;98173.81;;;14.26;63.39
21760;BME280;11041;50.854;20.580;2023-03-23T09:10:21;98151.16;;;14.21;63.60
21760;BME280;11041;50.854;20.580;2023-03-23T09:12:48;98150.88;;;14.26;61.91
21760;BME280;11041;50.854;20.580;2023-03-23T09:15:17;98150.75;;;14.35;62.36
21760;BME280;11041;50.854;20.580;2023-03-23T09:17:47;98148.69;;;14.47;61.26
21760;BME280;11041;50.854;20.580;2023-03-23T09:20:21;98148.91;;;14.55;62.62
21760;BME280;11041;50.854;20.580;2023-03-23T09:22:52;98136.22;;;14.69;60.45
21760;BME280;11041;50.854;20.580;2023-03-23T09:25:25;98148.38;;;14.81;59.35
21760;BME280;11041;50.854;20.580;2023-03-23T09:27:57;98143.81;;;14.88;59.64
21760;BME280;11041;50.854;20.580;2023-03-23T09:30:28;98133.91;;;14.87;58.88
21760;BME280;11041;50.854;20.580;2023-03-23T09:32:55;98156.09;;;15.07;58.92
21760;BME280;11041;50.854;20.580;2023-03-23T09:35:24;98137.53;;;15.07;58.58
21760;BME280;11041;50.854;20.580;2023-03-23T09:37:52;98128.78;;;15.05;59.15
21760;BME280;11041;50.854;20.580;2023-03-23T09:40:46;98145.09;;;15.26;58.39
21760;BME280;11041;50.854;20.580;2023-03-23T09:43:33;98140.94;;;15.36;58.10
21760;BME280;11041;50.854;20.580;2023-03-23T09:49:17;98140.13;;;15.51;56.78
21760;BME280;11041;50.854;20.580;2023-03-23T09:56:51;98141.84;;;15.75;55.02
21760;BME280;11041;50.854;20.580;2023-03-23T09:59:42;98120.53;;;15.80;54.18
21760;BME280;11041;50.854;20.580;2023-03-23T10:02:34;98129.28;;;15.82;54.19
21760;BME280;11041;50.854;20.580;2023-03-23T10:05:33;98113.75;;;15.77;53.75
21760;BME280;11041;50.854;20.580;2023-03-23T10:08:11;98141.13;;;16.02;53.44
21760;BME280;11041;50.854;20.580;2023-03-23T10:11:02;98137.28;;;16.06;52.90
21760;BME280;11041;50.854;20.580;2023-03-23T10:17:16;98105.63;;;16.07;53.74
21760;BME280;11041;50.854;20.580;2023-03-23T10:20:09;98092.84;;;16.22;52.84
21760;BME280;11041;50.854;20.580;2023-03-23T10:23:33;98107.19;;;16.51;51.83
21760;BME280;11041;50.854;20.580;2023-03-23T10:26:38;98092.16;;;16.52;52.84
21760;BME280;11041;50.854;20.580;2023-03-23T10:32:12;98082.72;;;16.79;51.39
21760;BME280;11041;50.854;20.580;2023-03-23T10:34:57;98061.75;;;16.82;50.81
21760;BME280;11041;50.854;20.580;2023-03-23T10:37:36;98065.44;;;16.90;50.31
21760;BME280;11041;50.854;20.580;2023-03-23T10:40:11;98081.19;;;17.12;49.63
21760;BME280;11041;50.854;20.580;2023-03-23T10:42:41;98055.44;;;17.12;49.77
21760;BME280;11041;50.854;20.580;2023-03-23T10:45:25;98077.31;;;17.47;48.72
21760;BME280;11041;50.854;20.580;2023-03-23T10:48:11;98053.09;;;17.44;47.73
21760;BME280;11041;50.854;20.580;2023-03-23T10:50:41;98067.59;;;17.64;46.29
21760;BME280;11041;50.854;20.580;2023-03-23T10:53:21;98066.41;;;17.65;45.79
21760;BME280;11041;50.854;20.580;2023-03-23T10:55:48;98048.53;;;17.62;45.98
21760;BME280;11041;50.854;20.580;2023-03-23T10:58:31;98041.53;;;17.76;44.70
21760;BME280;11041;50.854;20.580;2023-03-23T11:01:01;98055.28;;;17.95;45.11
21760;BME280;11041;50.854;20.580;2023-03-23T11:03:48;98050.78;;;18.21;44.29
21760;BME280;11041;50.854;20.580;2023-03-23T11:06:34;98050.44;;;18.29;44.06
21760;BME280;11041;50.854;20.580;2023-03-23T11:09:19;98058.06;;;18.36;43.76
21760;BME280;11041;50.854;20.580;2023-03-23T11:11:54;98072.84;;;18.47;43.51
21760;BME280;11041;50.854;20.580;2023-03-23T11:14:32;98029.84;;;18.38;43.66
21760;BME280;11041;50.854;20.580;2023-03-23T11:17:04;98025.88;;;18.35;44.30
21760;BME280;11041;50.854;20.580;2023-03-23T11:19:35;98018.34;;;18.39;44.72
21760;BME280;11041;50.854;20.580;2023-03-23T11:24:54;98040.38;;;18.62;43.37
21760;BME280;11041;50.854;20.580;2023-03-23T11:27:24;98033.16;;;18.54;43.23
21760;BME280;11041;50.854;20.580;2023-03-23T11:29:56;98040.63;;;18.46;43.37
21760;BME280;11041;50.854;20.580;2023-03-23T11:32:28;98027.03;;;18.30;43.35
21760;BME280;11041;50.854;20.580;2023-03-23T11:35:00;98010.94;;;18.09;43.48
21760;BME280;11041;50.854;20.580;2023-03-23T11:37:56;98014.88;;;18.08;43.83
21760;BME280;11041;50.854;20.580;2023-03-23T11:40:31;98027.13;;;17.97;43.81
21760;BME280;11041;50.854;20.580;2023-03-23T11:43:24;97999.63;;;17.92;44.42
21760;BME280;11041;50.854;20.580;2023-03-23T11:49:32;98022.13;;;18.20;43.35
21760;BME280;11041;50.854;20.580;2023-03-23T11:59:13;98000.91;;;18.49;42.19
21760;BME280;11041;50.854;20.580;2023-03-23T12:16:02;97955.69;;;18.60;41.14
21760;BME280;11041;50.854;20.580;2023-03-23T12:50:39;97987.44;;;18.03;41.92
21760;BME280;11041;50.854;20.580;2023-03-23T12:53:45;97982.66;;;18.00;42.28
21760;BME280;11041;50.854;20.580;2023-03-23T12:56:40;97989.41;;;17.99;42.55
21760;BME280;11041;50.854;20.580;2023-03-23T13:00:28;98015.22;;;18.00;43.31
21760;BME280;11041;50.854;20.580;2023-03-23T13:02:37;97978.16;;;17.85;43.46
21760;BME280;11041;50.854;20.580;2023-03-23T13:05:57;97995.66;;;17.89;43.38
21760;BME280;11041;50.854;20.580;2023-03-23T13:08:49;98005.94;;;17.85;43.63
21760;BME280;11041;50.854;20.580;2023-03-23T13:11:32;98001.78;;;17.72;43.98
21760;BME280;11041;50.854;20.580;2023-03-23T13:14:37;97989.31;;;17.55;44.40
21760;BME280;11041;50.854;20.580;2023-03-23T13:23:42;97977.09;;;17.25;45.23
21760;BME280;11041;50.854;20.580;2023-03-23T13:26:19;98005.97;;;17.21;46.01
21760;BME280;11041;50.854;20.580;2023-03-23T13:31:30;97986.72;;;17.05;46.41
21760;BME280;11041;50.854;20.580;2023-03-23T13:34:13;98022.63;;;17.21;46.75
21760;BME280;11041;50.854;20.580;2023-03-23T13:36:52;98033.66;;;17.14;47.86
21760;BME280;11041;50.854;20.580;2023-03-23T13:51:00;98006.72;;;16.61;47.71
21760;BME280;11041;50.854;20.580;2023-03-23T13:53:47;97994.50;;;16.66;47.98
21760;BME280;11041;50.854;20.580;2023-03-23T13:58:52;97998.34;;;16.57;47.94
21760;BME280;11041;50.854;20.580;2023-03-23T14:01:35;97989.44;;;16.45;48.27
21760;BME280;11041;50.854;20.580;2023-03-23T14:04:13;98000.25;;;16.53;48.36
21760;BME280;11041;50.854;20.580;2023-03-23T14:06:41;98000.25;;;16.53;48.36
21760;BME280;11041;50.854;20.580;2023-03-23T14:09:20;98000.94;;;16.47;48.33
21760;BME280;11041;50.854;20.580;2023-03-23T14:14:31;97994.53;;;16.43;49.03
21760;BME280;11041;50.854;20.580;2023-03-23T14:17:28;98006.19;;;16.52;48.82
21760;BME280;11041;50.854;20.580;2023-03-23T14:19:58;97996.16;;;16.44;49.10
21760;BME280;11041;50.854;20.580;2023-03-23T14:22:32;98004.84;;;16.42;48.47
21760;BME280;11041;50.854;20.580;2023-03-23T14:25:16;97993.75;;;16.42;49.20
21760;BME280;11041;50.854;20.580;2023-03-23T14:27:44;97996.38;;;16.31;49.00
21760;BME280;11041;50.854;20.580;2023-03-23T14:30:33;98015.88;;;16.38;49.73
21760;BME280;11041;50.854;20.580;2023-03-23T14:33:06;98002.34;;;16.33;49.32
21760;BME280;11041;50.854;20.580;2023-03-23T14:35:40;97997.28;;;16.39;49.02
21760;BME280;11041;50.854;20.580;2023-03-23T14:38:19;98000.19;;;16.50;49.09
21760;BME280;11041;50.854;20.580;2023-03-23T14:40:48;98027.44;;;16.67;48.80
21760;BME280;11041;50.854;20.580;2023-03-23T14:43:19;98009.59;;;16.68;48.92
21760;BME280;11041;50.854;20.580;2023-03-23T14:45:58;98001.59;;;16.63;48.64
21760;BME280;11041;50.854;20.580;2023-03-23T14:48:26;97970.44;;;16.47;49.13
21760;BME280;11041;50.854;20.580;2023-03-23T14:50:58;97986.44;;;16.57;49.12
21760;BME280;11041;50.854;20.580;2023-03-23T14:53:40;98025.09;;;16.69;49.50
21760;BME280;11041;50.854;20.580;2023-03-23T14:56:17;98009.16;;;16.66;49.17
21760;BME280;11041;50.854;20.580;2023-03-23T14:58:50;98009.91;;;16.63;48.94
21760;BME280;11041;50.854;20.580;2023-03-23T15:01:20;98010.69;;;16.60;49.60
21760;BME280;11041;50.854;20.580;2023-03-23T15:04:16;98015.81;;;16.61;49.55
21760;BME280;11041;50.854;20.580;2023-03-23T15:07:01;98020.13;;;16.55;49.80
21760;BME280;11041;50.854;20.580;2023-03-23T15:09:28;98016.22;;;16.60;49.54
21760;BME280;11041;50.854;20.580;2023-03-23T15:12:00;98002.69;;;16.55;49.55
21760;BME280;11041;50.854;20.580;2023-03-23T15:14:44;97978.53;;;16.32;50.01
21760;BME280;11041;50.854;20.580;2023-03-23T15:17:30;98005.75;;;16.50;50.67
21760;BME280;11041;50.854;20.580;2023-03-23T15:20:20;97994.94;;;16.41;50.16
21760;BME280;11041;50.854;20.580;2023-03-23T15:22:49;98014.44;;;16.48;49.85
21760;BME280;11041;50.854;20.580;2023-03-23T15:25:38;98016.44;;;16.48;50.53
21760;BME280;11041;50.854;20.580;2023-03-23T15:28:21;98019.81;;;16.37;50.74